Time;durP1;ratioP1;P1;durP2;ratioP2;P2;SDS_P1;SDS_P2;PMS_P1;PMS_P2;Temp;Humidity;BMP_temperature;BMP_pressure;BME280_temperature;BME280_humidity;BME280_pressure;Samples;Min_cycle;Max_cycle;Signal;HPM_P1;HPM_P2
2021/01/22 00:00:11;;;;;;;;;;;;;;;;;;5074898;28;19925;-63
2021/01/22 00:02:37;;;;;;;;;;;;;;;;;;5074866;28;19925;-63
2021/01/22 00:05:03;;;;;;;;;;;;;;;;;;5075039;28;19915;-63
2021/01/22 00:07:29;;;;;;;;;;;;;;;;;;5075046;28;20002;-63
2021/01/22 00:09:54;;;;;;;;;;;;;;;;;;5074842;28;20399;-63
2021/01/22 00:12:20;;;;;;;;;;;;;;;;;;5074715;28;19927;-63
2021/01/22 00:14:46;;;;;;;;;;;;;;;;;;5074504;28;20013;-63
2021/01/22 00:17:12;;;;;;;;;;;;;;;;;;5074966;28;19922;-63
2021/01/22 00:19:38;;;;;;;;;;;;;;;;;;5074832;28;19931;-63
2021/01/22 00:22:04;;;;;;;;;;;;;;;;;;5074386;28;19932;-63
2021/01/22 00:24:30;;;;;;;;;;;;;;;;;;5074363;28;19943;-63
2021/01/22 00:26:56;;;;;;;;;;;;;;;;;;5074337;28;19944;-63
2021/01/22 00:29:22;;;;;;;;;;;;;;;;;;5074460;28;19943;-63
2021/01/22 00:31:48;;;;;;;;;;;;;;;;;;5074426;28;19924;-63
2021/01/22 00:34:14;;;;;;;;;;;;;;;;;;5074326;28;19931;-63
2021/01/22 00:36:40;;;;;;;;;;;;;;;;;;5074335;28;20258;-63
2021/01/22 00:39:06;;;;;;;;;;;;;;;;;;5074514;28;19948;-63
2021/01/22 00:41:32;;;;;;;;;;;;;;;;;;5074369;28;20375;-63
2021/01/22 00:43:58;;;;;;;;;;;;;;;;;;5074087;28;19909;-63
2021/01/22 00:46:24;;;;;;;;;;;;;;;;;;5073925;28;19913;-63
2021/01/22 00:48:50;;;;;;;;;;;;;;;;;;5074546;28;19961;-63
2021/01/22 00:51:16;;;;;;;;;;;;;;;;;;5073926;28;19930;-63
2021/01/22 00:53:42;;;;;;;;;;;;;;;;;;5074020;28;20056;-63
2021/01/22 00:56:08;;;;;;;;;;;;;;;;;;5073925;28;19926;-63
2021/01/22 00:58:34;;;;;;;;;;;;;;;;;;5073908;28;20447;-63
2021/01/22 01:01:00;;;;;;;;;;;;;;;;;;5073471;28;19928;-63
2021/01/22 01:03:25;;;;;;;;;;;;;;;;;;5074205;28;19955;-63
2021/01/22 01:05:51;;;;;;;;;;;;;;;;;;5073678;28;20380;-63
2021/01/22 01:08:17;;;;;;;;;;;;;;;;;;5073691;28;19912;-63
2021/01/22 01:10:43;;;;;;;;;;;;;;;;;;5073664;28;20025;-63
2021/01/22 01:13:09;;;;;;;;;;;;;;;;;;5074093;28;20079;-63
2021/01/22 01:15:35;;;;;;;;;;;;;;;;;;5073574;28;20377;-63
2021/01/22 01:18:01;;;;;;;;;;;;;;;;;;5073717;28;19923;-64
2021/01/22 01:20:27;;;;;;;;;;;;;;;;;;5073647;28;20007;-63
2021/01/22 01:22:53;;;;;;;;;;;;;;;;;;5073515;28;19992;-63
2021/01/22 01:25:19;;;;;;;;;;;;;;;;;;5073654;28;20098;-63
2021/01/22 01:27:45;;;;;;;;;;;;;;;;;;5073740;28;20041;-63
2021/01/22 01:30:11;;;;;;;;;;;;;;;;;;5073542;28;19926;-63
2021/01/22 01:32:37;;;;;;;;;;;;;;;;;;5073601;28;19977;-63
2021/01/22 01:35:03;;;;;;;;;;;;;;;;;;5073776;28;19961;-63
2021/01/22 01:37:29;;;;;;;;;;;;;;;;;;5073516;28;19919;-63
2021/01/22 01:39:55;;;;;;;;;;;;;;;;;;5073532;28;19946;-63
2021/01/22 01:42:21;;;;;;;;;;;;;;;;;;5073373;28;19909;-63
2021/01/22 01:44:47;;;;;;;;;;;;;;;;;;5073373;28;19991;-63
2021/01/22 01:47:13;;;;;;;;;;;;;;;;;;5073548;28;19943;-63
2021/01/22 01:49:39;;;;;;;;;;;;;;;;;;5073494;28;19919;-63
2021/01/22 01:52:05;;;;;;;;;;;;;;;;;;5073378;28;19980;-63
2021/01/22 01:54:31;;;;;;;;;;;;;;;;;;5073325;28;20021;-63
2021/01/22 01:56:57;;;;;;;;;;;;;;;;;;5073274;28;19926;-63
2021/01/22 01:59:22;;;;;;;;;;;;;;;;;;5072099;28;20419;-63
2021/01/22 02:01:48;;;;;;;;;;;;;;;;;;5073132;28;19947;-63
2021/01/22 02:04:14;;;;;;;;;;;;;;;;;;5073158;28;19909;-63
2021/01/22 02:06:40;;;;;;;;;;;;;;;;;;5073327;28;19974;-63
2021/01/22 02:09:06;;;;;;;;;;;;;;;;;;5073272;28;20303;-63
2021/01/22 02:11:32;;;;;;;;;;;;;;;;;;5073356;28;20357;-63
2021/01/22 02:13:58;;;;;;;;;;;;;;;;;;5077084;28;19920;-63
2021/01/22 02:16:24;;;;;;;;;;;;;;;;;;5076877;28;20380;-63
2021/01/22 02:18:53;;;;;;;;;;;;;;;;;;5076891;28;20016;-63
2021/01/22 02:21:19;;;;;;;;;;;;;;;;;;5077099;28;20545;-63
2021/01/22 02:23:45;;;;;;;;;;;;;;;;;;5077045;28;19946;-63
2021/01/22 02:26:11;;;;;;;;;;;;;;;;;;5076683;28;20473;-63
2021/01/22 02:28:37;;;;;;;;;;;;;;;;;;5076965;28;20009;-63
2021/01/22 02:31:03;;;;;;;;;;;;;;;;;;5076664;28;19930;-63
2021/01/22 02:33:29;;;;;;;;;;;;;;;;;;5076579;28;19964;-63
2021/01/22 02:35:55;;;;;;;;;;;;;;;;;;5076613;28;19986;-63
2021/01/22 02:38:21;;;;;;;;;;;;;;;;;;5076449;28;19964;-63
2021/01/22 02:40:47;;;;;;;;;;;;;;;;;;5076780;28;20027;-63
2021/01/22 02:45:54;;;;;;;;;;;;;;;;;;5074254;28;19949;-58
2021/01/22 02:48:20;;;;;;;;;;;;;;;;;;5058446;28;19974;-59
2021/01/22 02:50:47;;;;;;;;;;;;;;;;;;5076459;28;19965;-59
2021/01/22 02:53:13;;;;;;;;;;;;;;;;;;5058370;28;19923;-59
2021/01/22 02:55:39;;;;;;;;;;;;;;;;;;5076397;28;19919;-58
2021/01/22 02:58:05;;;;;;;;;;;;;;;;;;5076131;28;19908;-58
2021/01/22 03:00:31;;;;;;;;;;;;;;;;;;5077173;28;19969;-59
2021/01/22 03:02:57;;;;;;;;;;;;;;;;;;5058210;28;19908;-59
2021/01/22 03:05:23;;;;;;;;;;;;;;;;;;5076213;28;19927;-59
2021/01/22 03:07:49;;;;;;;;;;;;;;;;;;5076212;28;19954;-59
2021/01/22 03:10:15;;;;;;;;;;;;;;;;;;5076069;28;19925;-58
2021/01/22 03:12:41;;;;;;;;;;;;;;;;;;5076140;28;19923;-59
2021/01/22 03:15:07;;;;;;;;;;;;;;;;;;5076375;28;19919;-59
2021/01/22 03:17:33;;;;;;;;;;;;;;;;;;5076157;28;19925;-58
2021/01/22 03:19:58;;;;;;;;;;;;;;;;;;5075933;28;20016;-59
2021/01/22 03:22:24;;;;;;;;;;;;;;;;;;5075497;28;19930;-59
2021/01/22 03:24:50;;;;;;;;;;;;;;;;;;5075836;28;19940;-57
2021/01/22 03:27:17;;;;;;;;;;;;;;;;;;5057790;28;19954;-59
2021/01/22 03:29:43;;;;;;;;;;;;;;;;;;5075751;28;20025;-59
2021/01/22 03:32:08;;;;;;;;;;;;;;;;;;5075654;28;19984;-59
2021/01/22 03:34:34;;;;;;;;;;;;;;;;;;5075642;28;19966;-58
2021/01/22 03:37:00;;;;;;;;;;;;;;;;;;5075768;28;19923;-59
2021/01/22 03:39:27;;;;;;;;;;;;;;;;;;5057514;28;20277;-59
2021/01/22 03:41:53;;;;;;;;;;;;;;;;;;5075449;28;19932;-58
2021/01/22 03:44:19;;;;;;;;;;;;;;;;;;5075154;28;19955;-58
2021/01/22 03:46:45;;;;;;;;;;;;;;;;;;5075200;28;20007;-59
2021/01/22 03:49:11;;;;;;;;;;;;;;;;;;5075257;28;19968;-59
2021/01/22 03:51:37;;;;;;;;;;;;;;;;;;5057451;28;19955;-59
2021/01/22 03:54:03;;;;;;;;;;;;;;;;;;5075086;28;19925;-59
2021/01/22 03:56:29;;;;;;;;;;;;;;;;;;5075168;28;19909;-59
2021/01/22 03:58:55;;;;;;;;;;;;;;;;;;5075053;28;19920;-58
2021/01/22 04:01:22;;;;;;;;;;;;;;;;;;5075336;28;19923;-59
2021/01/22 04:03:47;;;;;;;;;;;;;;;;;;5074971;28;20007;-58
2021/01/22 04:06:13;;;;;;;;;;;;;;;;;;5074895;28;19971;-58
2021/01/22 04:08:39;;;;;;;;;;;;;;;;;;5075178;28;19947;-59
2021/01/22 04:11:05;;;;;;;;;;;;;;;;;;5074987;28;19928;-59
2021/01/22 04:13:31;;;;;;;;;;;;;;;;;;5075082;28;19923;-58
2021/01/22 04:15:57;;;;;;;;;;;;;;;;;;5074903;28;20423;-58
2021/01/22 04:18:23;;;;;;;;;;;;;;;;;;5074657;28;19961;-58
2021/01/22 04:20:49;;;;;;;;;;;;;;;;;;5074922;28;19921;-58
2021/01/22 04:23:15;;;;;;;;;;;;;;;;;;5074669;28;19987;-59
2021/01/22 04:25:41;;;;;;;;;;;;;;;;;;5074780;28;20322;-58
2021/01/22 04:28:07;;;;;;;;;;;;;;;;;;5074378;28;19943;-59
2021/01/22 04:30:33;;;;;;;;;;;;;;;;;;5074506;28;19923;-58
2021/01/22 04:32:59;;;;;;;;;;;;;;;;;;5074660;28;19967;-58
2021/01/22 04:35:25;;;;;;;;;;;;;;;;;;5074091;28;20021;-58
2021/01/22 04:37:51;;;;;;;;;;;;;;;;;;5074433;28;20368;-59
2021/01/22 04:40:17;;;;;;;;;;;;;;;;;;5074407;28;19922;-58
2021/01/22 04:42:43;;;;;;;;;;;;;;;;;;5074431;28;20022;-59
2021/01/22 04:45:09;;;;;;;;;;;;;;;;;;5074352;28;19998;-59
2021/01/22 04:47:35;;;;;;;;;;;;;;;;;;5074050;28;19992;-58
2021/01/22 04:50:02;;;;;;;;;;;;;;;;;;5074184;28;19919;-59
2021/01/22 04:52:28;;;;;;;;;;;;;;;;;;5074223;28;20055;-58
2021/01/22 04:54:54;;;;;;;;;;;;;;;;;;5073863;28;19984;-58
2021/01/22 04:57:20;;;;;;;;;;;;;;;;;;5074176;28;19921;-58
2021/01/22 04:59:46;;;;;;;;;;;;;;;;;;5074039;28;19932;-58
2021/01/22 05:02:11;;;;;;;;;;;;;;;;;;5074017;28;19960;-59
2021/01/22 05:04:37;;;;;;;;;;;;;;;;;;5055942;28;19932;-59
2021/01/22 05:07:03;;;;;;;;;;;;;;;;;;5073796;28;20362;-58
2021/01/22 05:09:29;;;;;;;;;;;;;;;;;;5074023;28;19919;-59
2021/01/22 05:11:55;;;;;;;;;;;;;;;;;;5073824;28;19924;-58
2021/01/22 05:14:21;;;;;;;;;;;;;;;;;;5073814;28;19909;-58
2021/01/22 05:16:47;;;;;;;;;;;;;;;;;;5055917;28;20397;-59
2021/01/22 05:19:13;;;;;;;;;;;;;;;;;;5073668;28;19970;-58
2021/01/22 05:21:40;;;;;;;;;;;;;;;;;;5074022;28;19920;-59
2021/01/22 05:24:06;;;;;;;;;;;;;;;;;;5073575;28;19913;-59
2021/01/22 05:26:32;;;;;;;;;;;;;;;;;;5073738;28;19946;-59
2021/01/22 05:28:59;;;;;;;;;;;;;;;;;;5055717;28;20015;-58
2021/01/22 05:31:25;;;;;;;;;;;;;;;;;;5073553;28;19966;-59
2021/01/22 05:33:51;;;;;;;;;;;;;;;;;;5073705;28;19981;-58
2021/01/22 05:36:17;;;;;;;;;;;;;;;;;;5073498;28;19925;-59
2021/01/22 05:38:43;;;;;;;;;;;;;;;;;;5073464;28;20266;-59
2021/01/22 05:41:09;;;;;;;;;;;;;;;;;;5073500;28;19923;-59
2021/01/22 05:43:35;;;;;;;;;;;;;;;;;;5073317;28;19951;-58
2021/01/22 05:46:01;;;;;;;;;;;;;;;;;;5049924;28;19965;-58
2021/01/22 05:48:27;;;;;;;;;;;;;;;;;;5075285;28;19950;-58
2021/01/22 05:50:53;;;;;;;;;;;;;;;;;;5075315;28;20311;-57
2021/01/22 05:53:19;;;;;;;;;;;;;;;;;;5073172;28;19939;-58
2021/01/22 05:55:45;;;;;;;;;;;;;;;;;;5077082;28;19929;-58
2021/01/22 05:58:11;;;;;;;;;;;;;;;;;;5077656;28;19930;-58
2021/01/22 06:00:37;;;;;;;;;;;;;;;;;;5077338;28;20454;-59
2021/01/22 06:03:03;;;;;;;;;;;;;;;;;;5077179;28;19923;-58
2021/01/22 06:05:29;;;;;;;;;;;;;;;;;;5077212;28;19932;-58
2021/01/22 06:07:55;;;;;;;;;;;;;;;;;;5077111;28;19986;-58
2021/01/22 06:10:22;;;;;;;;;;;;;;;;;;5077163;28;19927;-58
2021/01/22 06:12:48;;;;;;;;;;;;;;;;;;5077186;28;20008;-58
2021/01/22 06:15:14;;;;;;;;;;;;;;;;;;5077375;28;20322;-58
2021/01/22 06:17:40;;;;;;;;;;;;;;;;;;5077396;28;19930;-58
2021/01/22 06:20:06;;;;;;;;;;;;;;;;;;5076909;28;20275;-58
2021/01/22 06:22:32;;;;;;;;;;;;;;;;;;5077049;28;19972;-58
2021/01/22 06:24:58;;;;;;;;;;;;;;;;;;5076850;28;20290;-59
2021/01/22 06:27:24;;;;;;;;;;;;;;;;;;5076730;28;19977;-58
2021/01/22 06:29:50;;;;;;;;;;;;;;;;;;5076737;28;19954;-59
2021/01/22 06:32:16;;;;;;;;;;;;;;;;;;5076767;28;20034;-58
2021/01/22 06:34:42;;;;;;;;;;;;;;;;;;5076674;28;20337;-59
2021/01/22 06:37:09;;;;;;;;;;;;;;;;;;5076660;28;19957;-58
2021/01/22 06:39:35;;;;;;;;;;;;;;;;;;5076523;28;19923;-58
2021/01/22 06:42:01;;;;;;;;;;;;;;;;;;5076531;28;20043;-59
2021/01/22 06:44:27;;;;;;;;;;;;;;;;;;5068909;28;20007;-58
2021/01/22 06:46:53;;;;;;;;;;;;;;;;;;5071439;28;19945;-58
2021/01/22 06:49:19;;;;;;;;;;;;;;;;;;5060030;28;19956;-59
2021/01/22 06:51:45;;;;;;;;;;;;;;;;;;5056042;28;20025;-58
2021/01/22 06:54:11;;;;;;;;;;;;;;;;;;5056208;28;19932;-58
2021/01/22 06:56:38;;;;;;;;;;;;;;;;;;5056296;28;19924;-58
2021/01/22 06:59:04;;;;;;;;;;;;;;;;;;5055986;28;19923;-58
2021/01/22 07:01:30;;;;;;;;;;;;;;;;;;5056088;28;20327;-58
2021/01/22 07:03:56;;;;;;;;;;;;;;;;;;5056344;28;19960;-59
2021/01/22 07:06:22;;;;;;;;;;;;;;;;;;5055832;28;20424;-60
2021/01/22 07:08:48;;;;;;;;;;;;;;;;;;5056203;28;19930;-61
2021/01/22 07:11:14;;;;;;;;;;;;;;;;;;5056075;28;19919;-61
2021/01/22 07:13:42;;;;;;;;;;;;;;;;;;5056282;28;19913;-61
2021/01/22 07:16:08;;;;;;;;;;;;;;;;;;5055832;28;20004;-65
2021/01/22 07:18:34;;;;;;;;;;;;;;;;;;5038023;28;20401;-60
2021/01/22 07:21:00;;;;;;;;;;;;;;;;;;5055787;28;19970;-59
2021/01/22 07:23:26;;;;;;;;;;;;;;;;;;5056089;28;19995;-61
2021/01/22 07:25:52;;;;;;;;;;;;;;;;;;5061058;28;19978;-59
2021/01/22 07:28:18;;;;;;;;;;;;;;;;;;5070725;28;19944;-60
2021/01/22 07:30:44;;;;;;;;;;;;;;;;;;5063671;28;20077;-60
2021/01/22 07:33:10;;;;;;;;;;;;;;;;;;5065782;28;19933;-59
2021/01/22 07:35:36;;;;;;;;;;;;;;;;;;5056612;28;20410;-59
2021/01/22 07:38:02;;;;;;;;;;;;;;;;;;5055550;28;19927;-60
2021/01/22 07:40:29;;;;;;;;;;;;;;;;;;5056078;28;19982;-59
2021/01/22 07:42:55;;;;;;;;;;;;;;;;;;5055601;28;20452;-58
2021/01/22 07:45:21;;;;;;;;;;;;;;;;;;5059893;28;19958;-59
2021/01/22 07:47:47;;;;;;;;;;;;;;;;;;5065724;28;19948;-59
2021/01/22 07:50:13;;;;;;;;;;;;;;;;;;5065408;28;19923;-59
2021/01/22 07:52:39;;;;;;;;;;;;;;;;;;5075318;28;19928;-59
2021/01/22 07:55:05;;;;;;;;;;;;;;;;;;5075208;28;19946;-59
2021/01/22 07:57:31;;;;;;;;;;;;;;;;;;5075161;28;20381;-59
2021/01/22 07:59:57;;;;;;;;;;;;;;;;;;5059987;28;20016;-59
2021/01/22 08:02:23;;;;;;;;;;;;;;;;;;5055073;28;20047;-59
2021/01/22 08:04:49;;;;;;;;;;;;;;;;;;5054974;28;19964;-59
2021/01/22 08:07:15;;;;;;;;;;;;;;;;;;5054946;28;19951;-60
2021/01/22 08:09:41;;;;;;;;;;;;;;;;;;5053707;28;20334;-60
2021/01/22 08:12:07;;;;;;;;;;;;;;;;;;5036884;28;19962;-59
2021/01/22 08:14:34;;;;;;;;;;;;;;;;;;5054805;28;19923;-59
2021/01/22 08:17:00;;;;;;;;;;;;;;;;;;5054552;28;20006;-59
2021/01/22 08:19:26;;;;;;;;;;;;;;;;;;5061516;28;20006;-58
2021/01/22 08:21:52;;;;;;;;;;;;;;;;;;5067735;28;19909;-58
2021/01/22 08:24:18;;;;;;;;;;;;;;;;;;5063151;28;19913;-58
2021/01/22 08:26:44;;;;;;;;;;;;;;;;;;5063533;28;20431;-60
2021/01/22 08:29:10;;;;;;;;;;;;;;;;;;5066262;28;19912;-58
2021/01/22 08:31:36;;;;;;;;;;;;;;;;;;5054576;28;19965;-60
2021/01/22 08:34:02;;;;;;;;;;;;;;;;;;5054613;28;19995;-60
2021/01/22 08:36:28;;;;;;;;;;;;;;;;;;5054671;28;19909;-60
2021/01/22 08:38:54;;;;;;;;;;;;;;;;;;5054551;28;20370;-59
2021/01/22 08:41:20;;;;;;;;;;;;;;;;;;5054341;28;19990;-60
2021/01/22 08:43:46;;;;;;;;;;;;;;;;;;5054120;28;19924;-59
2021/01/22 08:46:12;;;;;;;;;;;;;;;;;;5054392;28;20449;-60
2021/01/22 08:48:38;;;;;;;;;;;;;;;;;;5054102;28;19909;-59
2021/01/22 08:51:04;;;;;;;;;;;;;;;;;;5054188;28;19909;-59
2021/01/22 08:53:30;;;;;;;;;;;;;;;;;;5054405;28;19916;-59
2021/01/22 08:55:56;;;;;;;;;;;;;;;;;;5059461;28;20396;-59
2021/01/22 08:58:22;;;;;;;;;;;;;;;;;;5063083;28;19920;-60
2021/01/22 09:00:48;;;;;;;;;;;;;;;;;;5045940;28;20296;-59
2021/01/22 09:03:14;;;;;;;;;;;;;;;;;;5061485;28;19966;-61
2021/01/22 09:05:40;;;;;;;;;;;;;;;;;;5072635;28;19926;-58
2021/01/22 09:08:06;;;;;;;;;;;;;;;;;;5065317;28;19921;-59
2021/01/22 09:10:32;;;;;;;;;;;;;;;;;;5062163;28;20347;-59
2021/01/22 09:12:58;;;;;;;;;;;;;;;;;;5071202;28;20281;-59
2021/01/22 09:15:24;;;;;;;;;;;;;;;;;;5074249;28;19908;-59
2021/01/22 09:17:50;;;;;;;;;;;;;;;;;;5073836;28;20384;-60
2021/01/22 09:20:16;;;;;;;;;;;;;;;;;;5073643;28;19920;-60
2021/01/22 09:22:43;;;;;;;;;;;;;;;;;;5073841;28;20041;-60
2021/01/22 09:25:10;;;;;;;;;;;;;;;;;;5073837;28;19915;-60
2021/01/22 09:27:39;;;;;;;;;;;;;;;;;;5073970;28;19931;-60
2021/01/22 09:30:05;;;;;;;;;;;;;;;;;;5073900;28;19909;-60
2021/01/22 09:32:31;;;;;;;;;;;;;;;;;;5073657;28;19915;-60
2021/01/22 09:34:57;;;;;;;;;;;;;;;;;;5073690;28;19962;-60
2021/01/22 09:37:23;;;;;;;;;;;;;;;;;;5074026;28;19995;-60
2021/01/22 09:39:49;;;;;;;;;;;;;;;;;;5073867;28;20304;-61
2021/01/22 09:42:15;;;;;;;;;;;;;;;;;;5072901;28;19923;-60
2021/01/22 09:44:41;;;;;;;;;;;;;;;;;;5060638;28;20016;-60
2021/01/22 09:47:07;;;;;;;;;;;;;;;;;;5059446;28;20015;-58
2021/01/22 09:49:33;;;;;;;;;;;;;;;;;;5063384;28;19913;-59
2021/01/22 09:51:59;;;;;;;;;;;;;;;;;;5062701;28;19912;-59
2021/01/22 09:54:25;;;;;;;;;;;;;;;;;;5064015;28;19918;-59
2021/01/22 09:56:51;;;;;;;;;;;;;;;;;;5062324;28;19920;-59
2021/01/22 09:59:17;;;;;;;;;;;;;;;;;;5063209;28;19915;-59
2021/01/22 10:01:43;;;;;;;;;;;;;;;;;;5063684;28;19912;-59
2021/01/22 10:04:09;;;;;;;;;;;;;;;;;;5064929;28;19920;-59
2021/01/22 10:06:35;;;;;;;;;;;;;;;;;;5062536;28;20311;-58
2021/01/22 10:09:01;;;;;;;;;;;;;;;;;;5068981;28;19908;-60
2021/01/22 10:11:27;;;;;;;;;;;;;;;;;;5073672;28;19915;-60
2021/01/22 10:13:54;;;;;;;;;;;;;;;;;;5073083;28;20341;-59
2021/01/22 10:16:21;;;;;;;;;;;;;;;;;;5054777;28;19913;-60
2021/01/22 10:18:47;;;;;;;;;;;;;;;;;;5053252;28;20007;-60
2021/01/22 10:21:13;;;;;;;;;;;;;;;;;;5053178;28;20353;-60
2021/01/22 10:23:38;;;;;;;;;;;;;;;;;;5053033;28;19912;-60
2021/01/22 10:26:04;;;;;;;;;;;;;;;;;;5053088;28;19915;-60
2021/01/22 10:28:30;;;;;;;;;;;;;;;;;;5053630;28;19924;-60
2021/01/22 10:30:56;;;;;;;;;;;;;;;;;;5053167;28;19966;-60
2021/01/22 10:33:22;;;;;;;;;;;;;;;;;;5054585;28;19909;-60
2021/01/22 10:35:48;;;;;;;;;;;;;;;;;;5056892;28;19909;-60
2021/01/22 10:38:16;;;;;;;;;;;;;;;;;;5056949;28;20472;-59
2021/01/22 10:40:42;;;;;;;;;;;;;;;;;;5056494;28;19909;-60
2021/01/22 10:43:08;;;;;;;;;;;;;;;;;;5056995;28;19909;-60
2021/01/22 10:45:34;;;;;;;;;;;;;;;;;;5056417;28;19921;-60
2021/01/22 10:48:00;;;;;;;;;;;;;;;;;;5056543;28;20020;-60
2021/01/22 10:50:26;;;;;;;;;;;;;;;;;;5056453;28;20281;-60
2021/01/22 10:52:52;;;;;;;;;;;;;;;;;;5056803;28;20374;-60
2021/01/22 10:55:18;;;;;;;;;;;;;;;;;;5056650;28;19963;-60
2021/01/22 10:57:45;;;;;;;;;;;;;;;;;;5056398;28;20285;-60
2021/01/22 11:00:11;;;;;;;;;;;;;;;;;;5056531;28;19913;-60
2021/01/22 11:02:37;;;;;;;;;;;;;;;;;;5038514;28;19931;-60
2021/01/22 11:05:03;;;;;;;;;;;;;;;;;;5056700;28;19909;-60
2021/01/22 11:07:29;;;;;;;;;;;;;;;;;;5064417;28;19962;-60
2021/01/22 11:09:55;;;;;;;;;;;;;;;;;;5055913;28;20024;-60
2021/01/22 11:12:21;;;;;;;;;;;;;;;;;;5056002;28;19978;-60
2021/01/22 11:14:47;;;;;;;;;;;;;;;;;;5066829;28;19908;-59
2021/01/22 11:17:13;;;;;;;;;;;;;;;;;;5076344;28;20300;-60
2021/01/22 11:19:39;;;;;;;;;;;;;;;;;;5076282;28;19905;-60
2021/01/22 11:22:05;;;;;;;;;;;;;;;;;;5071750;28;19995;-59
2021/01/22 11:24:31;;;;;;;;;;;;;;;;;;5067949;28;19916;-60
2021/01/22 11:26:57;;;;;;;;;;;;;;;;;;5055764;28;19923;-60
2021/01/22 11:29:23;;;;;;;;;;;;;;;;;;5055920;28;19909;-60
2021/01/22 11:31:49;;;;;;;;;;;;;;;;;;5055836;28;20336;-60
2021/01/22 11:34:15;;;;;;;;;;;;;;;;;;5055861;28;19915;-60
2021/01/22 11:36:41;;;;;;;;;;;;;;;;;;5055692;28;20247;-60
2021/01/22 11:39:07;;;;;;;;;;;;;;;;;;5055853;28;19912;-60
2021/01/22 11:41:33;;;;;;;;;;;;;;;;;;5055466;28;19995;-60
2021/01/22 11:43:59;;;;;;;;;;;;;;;;;;5055367;28;19967;-60
2021/01/22 11:46:25;;;;;;;;;;;;;;;;;;5055178;28;19961;-60
2021/01/22 11:48:51;;;;;;;;;;;;;;;;;;5055413;28;20242;-60
2021/01/22 11:51:18;;;;;;;;;;;;;;;;;;5055600;28;20400;-60
2021/01/22 11:53:44;;;;;;;;;;;;;;;;;;5055179;28;19917;-60
2021/01/22 11:56:10;;;;;;;;;;;;;;;;;;5037183;28;20012;-60
2021/01/22 11:58:36;;;;;;;;;;;;;;;;;;5055407;28;19912;-60
2021/01/22 12:01:02;;;;;;;;;;;;;;;;;;5055362;28;19915;-60
2021/01/22 12:03:28;;;;;;;;;;;;;;;;;;5055133;28;20278;-59
2021/01/22 12:05:54;;;;;;;;;;;;;;;;;;5055023;28;19944;-60
2021/01/22 12:08:22;;;;;;;;;;;;;;;;;;5055182;28;19996;-60
2021/01/22 12:10:48;;;;;;;;;;;;;;;;;;5058885;28;19917;-59
2021/01/22 12:13:14;;;;;;;;;;;;;;;;;;5062236;28;19956;-59
2021/01/22 12:15:40;;;;;;;;;;;;;;;;;;5075043;28;20358;-59
2021/01/22 12:18:06;;;;;;;;;;;;;;;;;;5063657;28;20324;-59
2021/01/22 12:20:32;;;;;;;;;;;;;;;;;;5061677;28;19920;-58
2021/01/22 12:22:58;;;;;;;;;;;;;;;;;;5063702;28;19909;-58
2021/01/22 12:25:24;;;;;;;;;;;;;;;;;;5065188;28;20308;-59
2021/01/22 12:27:50;;;;;;;;;;;;;;;;;;5067514;28;19935;-57
2021/01/22 12:30:16;;;;;;;;;;;;;;;;;;5072460;28;19913;-58
2021/01/22 12:32:42;;;;;;;;;;;;;;;;;;5066014;28;19915;-59
2021/01/22 12:35:08;;;;;;;;;;;;;;;;;;5063192;28;19931;-59
2021/01/22 12:37:34;;;;;;;;;;;;;;;;;;5066090;28;19972;-59
2021/01/22 12:40:00;;;;;;;;;;;;;;;;;;5065625;28;19908;-59
2021/01/22 12:42:26;;;;;;;;;;;;;;;;;;5054346;28;19963;-60
2021/01/22 12:44:52;;;;;;;;;;;;;;;;;;5054101;28;19920;-60
2021/01/22 12:47:18;;;;;;;;;;;;;;;;;;5054098;28;19917;-60
2021/01/22 12:49:44;;;;;;;;;;;;;;;;;;5054430;28;20423;-60
2021/01/22 12:52:10;;;;;;;;;;;;;;;;;;5054436;28;19908;-59
2021/01/22 12:54:36;;;;;;;;;;;;;;;;;;5054064;28;20281;-59
2021/01/22 12:57:02;;;;;;;;;;;;;;;;;;5053831;28;19908;-59
2021/01/22 12:59:28;;;;;;;;;;;;;;;;;;5054469;28;19916;-59
2021/01/22 13:01:54;;;;;;;;;;;;;;;;;;5053909;28;20439;-60
2021/01/22 13:04:21;;;;;;;;;;;;;;;;;;5054107;28;19909;-60
2021/01/22 13:06:47;;;;;;;;;;;;;;;;;;5053935;28;19921;-61
2021/01/22 13:09:12;;;;;;;;;;;;;;;;;;5054270;28;19908;-60
2021/01/22 13:11:40;;;;;;;;;;;;;;;;;;5053894;28;19966;-60
2021/01/22 13:14:06;;;;;;;;;;;;;;;;;;5053921;28;19909;-60
2021/01/22 13:16:32;;;;;;;;;;;;;;;;;;5054238;28;19905;-60
2021/01/22 13:18:58;;;;;;;;;;;;;;;;;;5053793;28;20400;-60
2021/01/22 13:21:24;;;;;;;;;;;;;;;;;;5054034;28;20003;-60
2021/01/22 13:23:50;;;;;;;;;;;;;;;;;;5053566;28;20346;-60
2021/01/22 13:26:16;;;;;;;;;;;;;;;;;;5053641;28;19948;-60
2021/01/22 13:28:42;;;;;;;;;;;;;;;;;;5053827;28;20251;-60
2021/01/22 13:31:08;;;;;;;;;;;;;;;;;;5053911;28;19909;-60
2021/01/22 13:33:34;;;;;;;;;;;;;;;;;;5053496;28;20396;-60
2021/01/22 13:36:00;;;;;;;;;;;;;;;;;;5053965;28;19909;-60
2021/01/22 13:38:26;;;;;;;;;;;;;;;;;;5053559;28;20323;-60
2021/01/22 13:40:52;;;;;;;;;;;;;;;;;;5054132;28;19936;-59
2021/01/22 13:43:18;;;;;;;;;;;;;;;;;;5062385;28;20369;-59
2021/01/22 13:45:44;;;;;;;;;;;;;;;;;;5035405;28;20308;-59
2021/01/22 13:48:10;;;;;;;;;;;;;;;;;;5053437;28;19916;-60
2021/01/22 13:50:36;;;;;;;;;;;;;;;;;;5053528;28;19919;-60
2021/01/22 13:53:02;;;;;;;;;;;;;;;;;;5053329;28;20031;-60
2021/01/22 13:55:28;;;;;;;;;;;;;;;;;;5053495;28;20373;-60
2021/01/22 13:57:54;;;;;;;;;;;;;;;;;;5053539;28;19955;-59
2021/01/22 14:00:20;;;;;;;;;;;;;;;;;;5053509;28;20293;-60
2021/01/22 14:02:46;;;;;;;;;;;;;;;;;;5053601;28;19913;-60
2021/01/22 14:05:13;;;;;;;;;;;;;;;;;;5061601;28;19920;-59
2021/01/22 14:07:39;;;;;;;;;;;;;;;;;;5057371;28;20217;-60
2021/01/22 14:10:05;;;;;;;;;;;;;;;;;;5057201;28;20381;-60
2021/01/22 14:12:31;;;;;;;;;;;;;;;;;;5057633;28;19916;-60
2021/01/22 14:14:57;;;;;;;;;;;;;;;;;;5057096;28;19920;-61
2021/01/22 14:17:23;;;;;;;;;;;;;;;;;;5057268;28;19944;-61
2021/01/22 14:19:49;;;;;;;;;;;;;;;;;;5057115;28;20281;-60
2021/01/22 14:22:14;;;;;;;;;;;;;;;;;;5057032;28;19916;-60
2021/01/22 14:24:40;;;;;;;;;;;;;;;;;;5057003;28;19916;-60
2021/01/22 14:27:06;;;;;;;;;;;;;;;;;;5056857;28;19918;-60
2021/01/22 14:29:32;;;;;;;;;;;;;;;;;;5057077;28;20007;-60
2021/01/22 14:31:58;;;;;;;;;;;;;;;;;;5072634;28;19919;-60
2021/01/22 14:34:24;;;;;;;;;;;;;;;;;;5068365;28;19909;-62
2021/01/22 14:36:50;;;;;;;;;;;;;;;;;;5057080;28;19935;-60
2021/01/22 14:39:16;;;;;;;;;;;;;;;;;;5056641;28;19995;-60
2021/01/22 14:41:42;;;;;;;;;;;;;;;;;;5056849;28;19909;-60
2021/01/22 14:44:08;;;;;;;;;;;;;;;;;;5056090;28;20358;-60
2021/01/22 14:46:34;;;;;;;;;;;;;;;;;;5056834;28;19913;-60
2021/01/22 14:49:02;;;;;;;;;;;;;;;;;;5056507;28;19909;-60
2021/01/22 14:51:28;;;;;;;;;;;;;;;;;;5056740;28;19916;-60
2021/01/22 14:53:54;;;;;;;;;;;;;;;;;;5056331;28;20281;-60
2021/01/22 14:56:20;;;;;;;;;;;;;;;;;;5056516;28;19912;-60
2021/01/22 14:58:46;;;;;;;;;;;;;;;;;;5056254;28;19913;-60
2021/01/22 15:01:12;;;;;;;;;;;;;;;;;;5056601;28;19935;-60
2021/01/22 15:03:38;;;;;;;;;;;;;;;;;;5056265;28;20406;-60
2021/01/22 15:06:04;;;;;;;;;;;;;;;;;;5056218;28;19916;-60
2021/01/22 15:08:30;;;;;;;;;;;;;;;;;;5056154;28;20336;-60
2021/01/22 15:10:56;;;;;;;;;;;;;;;;;;5056127;28;19909;-60
2021/01/22 15:13:22;;;;;;;;;;;;;;;;;;5056072;28;20379;-61
2021/01/22 15:15:48;;;;;;;;;;;;;;;;;;5056177;28;20277;-60
2021/01/22 15:18:14;;;;;;;;;;;;;;;;;;5055993;28;19905;-60
2021/01/22 15:20:40;;;;;;;;;;;;;;;;;;5055777;28;19908;-60
2021/01/22 15:23:06;;;;;;;;;;;;;;;;;;5055741;28;19912;-59
2021/01/22 15:25:31;;;;;;;;;;;;;;;;;;5056155;28;19909;-60
2021/01/22 15:27:57;;;;;;;;;;;;;;;;;;5055870;28;19923;-60
2021/01/22 15:30:23;;;;;;;;;;;;;;;;;;5055821;28;19908;-60
2021/01/22 15:32:52;;;;;;;;;;;;;;;;;;5055807;28;19909;-60
2021/01/22 15:35:18;;;;;;;;;;;;;;;;;;5055834;28;19909;-60
2021/01/22 15:37:44;;;;;;;;;;;;;;;;;;5055728;28;19932;-60
2021/01/22 15:40:12;;;;;;;;;;;;;;;;;;5055559;28;19909;-60
2021/01/22 15:42:38;;;;;;;;;;;;;;;;;;5055576;28;20281;-60
2021/01/22 15:45:04;;;;;;;;;;;;;;;;;;5055335;28;19921;-59
2021/01/22 15:47:30;;;;;;;;;;;;;;;;;;5055362;28;19936;-59
2021/01/22 15:49:56;;;;;;;;;;;;;;;;;;5055443;28;19909;-59
2021/01/22 15:52:22;;;;;;;;;;;;;;;;;;5055721;28;19909;-59
2021/01/22 15:54:48;;;;;;;;;;;;;;;;;;5055293;28;20353;-59
2021/01/22 15:57:13;;;;;;;;;;;;;;;;;;5055204;28;19909;-59
2021/01/22 15:59:39;;;;;;;;;;;;;;;;;;5055721;28;19955;-59
2021/01/22 16:02:05;;;;;;;;;;;;;;;;;;5055196;28;19924;-59
2021/01/22 16:04:31;;;;;;;;;;;;;;;;;;5055144;28;19908;-60
2021/01/22 16:06:57;;;;;;;;;;;;;;;;;;5054962;28;20392;-59
2021/01/22 16:09:23;;;;;;;;;;;;;;;;;;5054941;28;19909;-59
2021/01/22 16:11:49;;;;;;;;;;;;;;;;;;5055021;28;19916;-59
2021/01/22 16:14:16;;;;;;;;;;;;;;;;;;5054865;28;20011;-59
2021/01/22 16:16:42;;;;;;;;;;;;;;;;;;5055341;28;19909;-59
2021/01/22 16:19:08;;;;;;;;;;;;;;;;;;5054839;28;19962;-60
2021/01/22 16:21:34;;;;;;;;;;;;;;;;;;5054762;28;19955;-60
2021/01/22 16:24:00;;;;;;;;;;;;;;;;;;5054900;28;19908;-59
2021/01/22 16:26:26;;;;;;;;;;;;;;;;;;5054696;28;19908;-60
2021/01/22 16:28:52;;;;;;;;;;;;;;;;;;5054925;28;19966;-60
2021/01/22 16:31:18;;;;;;;;;;;;;;;;;;5054064;28;20007;-59
2021/01/22 16:33:43;;;;;;;;;;;;;;;;;;5054621;28;20411;-60
2021/01/22 16:36:09;;;;;;;;;;;;;;;;;;5054088;28;19931;-58
2021/01/22 16:38:35;;;;;;;;;;;;;;;;;;5054168;28;19966;-59